Search for airport 
image banner adimage banner adimage banner ad
image banner ad

29CA - Landells

Located in Desert Hot Springs, United States

ICAO - 29CA, IATA -

Data provided by Airmate  

General information

Coordinates: N33°55'18" W116°27'12"
Elevation is 940 feet MSL.
Magnetic variation is 13° East
View others Airports in California

Operational data

Special qualification required
Current time UTC:
Current local time:
Weather at : KPSP - Palm Springs Intl ( 11 km )
METAR: KPSP 210053Z 11008KT 10SM CLR 37/03 A2986 RMK AO2 SLP107 T03720033
TAF: KPSP 202324Z 2100/2124 12007KT P6SM SKC FM210300 33005KT P6SM SKC FM211900 12007KT P6SM SKC
View NOTAMs / SUP AIP / TFR affecting this airport [VIEW]
Communications frequencies: [VIEW]

Runways:

Airport contact information

Address: Desert Hot Springs United States

Satellite view of 29CA